sensor_id;sensor_type;location;lat;lon;timestamp;P1;durP1;ratioP1;P2;durP2;ratioP2
17997;SDS011;9124;48.144;17.098;2022-07-30T00:01:11;11.20;;;10.43;;
17997;SDS011;9124;48.144;17.098;2022-07-30T00:04:48;9.15;;;8.52;;
17997;SDS011;9124;48.144;17.098;2022-07-30T00:08:25;9.48;;;8.57;;
17997;SDS011;9124;48.144;17.098;2022-07-30T00:12:01;10.55;;;7.57;;
17997;SDS011;9124;48.144;17.098;2022-07-30T00:15:39;7.65;;;6.95;;
17997;SDS011;9124;48.144;17.098;2022-07-30T00:19:16;6.15;;;5.65;;
17997;SDS011;9124;48.144;17.098;2022-07-30T00:22:53;5.40;;;4.90;;
17997;SDS011;9124;48.144;17.098;2022-07-30T00:26:30;5.35;;;4.93;;
17997;SDS011;9124;48.144;17.098;2022-07-30T00:30:07;4.80;;;4.47;;
17997;SDS011;9124;48.144;17.098;2022-07-30T00:33:44;6.25;;;5.70;;
17997;SDS011;9124;48.144;17.098;2022-07-30T00:37:21;7.25;;;6.75;;
17997;SDS011;9124;48.144;17.098;2022-07-30T00:40:58;10.73;;;9.73;;
17997;SDS011;9124;48.144;17.098;2022-07-30T00:44:35;11.25;;;10.55;;
17997;SDS011;9124;48.144;17.098;2022-07-30T00:48:12;13.45;;;12.27;;
17997;SDS011;9124;48.144;17.098;2022-07-30T00:51:50;14.07;;;11.73;;
17997;SDS011;9124;48.144;17.098;2022-07-30T00:55:27;12.30;;;11.00;;
17997;SDS011;9124;48.144;17.098;2022-07-30T00:59:04;10.25;;;9.32;;
17997;SDS011;9124;48.144;17.098;2022-07-30T01:02:41;11.20;;;10.45;;
17997;SDS011;9124;48.144;17.098;2022-07-30T01:06:18;10.30;;;9.43;;
17997;SDS011;9124;48.144;17.098;2022-07-30T01:09:55;12.95;;;11.75;;
17997;SDS011;9124;48.144;17.098;2022-07-30T01:13:32;11.23;;;10.18;;
17997;SDS011;9124;48.144;17.098;2022-07-30T01:17:09;11.27;;;10.38;;
17997;SDS011;9124;48.144;17.098;2022-07-30T01:20:53;13.48;;;12.32;;
17997;SDS011;9124;48.144;17.098;2022-07-30T01:24:44;13.73;;;12.82;;
17997;SDS011;9124;48.144;17.098;2022-07-30T01:28:31;16.85;;;15.27;;
17997;SDS011;9124;48.144;17.098;2022-07-30T01:32:34;16.85;;;15.35;;
17997;SDS011;9124;48.144;17.098;2022-07-30T01:36:15;14.70;;;13.05;;
17997;SDS011;9124;48.144;17.098;2022-07-30T01:39:57;12.48;;;11.50;;
17997;SDS011;9124;48.144;17.098;2022-07-30T01:43:35;14.50;;;13.35;;
17997;SDS011;9124;48.144;17.098;2022-07-30T01:47:14;12.68;;;11.70;;
17997;SDS011;9124;48.144;17.098;2022-07-30T01:50:54;11.48;;;10.77;;
17997;SDS011;9124;48.144;17.098;2022-07-30T01:54:34;11.25;;;10.32;;
17997;SDS011;9124;48.144;17.098;2022-07-30T01:58:12;9.70;;;9.10;;
17997;SDS011;9124;48.144;17.098;2022-07-30T02:01:57;10.27;;;9.27;;
17997;SDS011;9124;48.144;17.098;2022-07-30T02:05:34;10.60;;;9.52;;
17997;SDS011;9124;48.144;17.098;2022-07-30T02:09:14;9.88;;;9.00;;
17997;SDS011;9124;48.144;17.098;2022-07-30T02:12:54;9.95;;;8.88;;
17997;SDS011;9124;48.144;17.098;2022-07-30T02:16:35;9.68;;;8.88;;
17997;SDS011;9124;48.144;17.098;2022-07-30T02:20:14;8.40;;;7.68;;
17997;SDS011;9124;48.144;17.098;2022-07-30T02:23:53;7.80;;;7.30;;
17997;SDS011;9124;48.144;17.098;2022-07-30T02:27:32;7.78;;;6.85;;
17997;SDS011;9124;48.144;17.098;2022-07-30T02:31:16;7.43;;;6.85;;
17997;SDS011;9124;48.144;17.098;2022-07-30T02:34:58;6.70;;;6.30;;
17997;SDS011;9124;48.144;17.098;2022-07-30T02:38:40;7.30;;;6.13;;
17997;SDS011;9124;48.144;17.098;2022-07-30T02:42:18;6.97;;;6.50;;
17997;SDS011;9124;48.144;17.098;2022-07-30T02:45:58;7.57;;;6.97;;
17997;SDS011;9124;48.144;17.098;2022-07-30T02:49:52;7.75;;;7.25;;
17997;SDS011;9124;48.144;17.098;2022-07-30T02:53:31;6.68;;;6.28;;
17997;SDS011;9124;48.144;17.098;2022-07-30T02:57:09;8.95;;;7.55;;
17997;SDS011;9124;48.144;17.098;2022-07-30T03:00:49;6.75;;;6.25;;
17997;SDS011;9124;48.144;17.098;2022-07-30T03:04:29;7.60;;;7.00;;
17997;SDS011;9124;48.144;17.098;2022-07-30T03:08:08;7.63;;;7.03;;
17997;SDS011;9124;48.144;17.098;2022-07-30T03:11:45;5.95;;;5.65;;
17997;SDS011;9124;48.144;17.098;2022-07-30T03:15:25;6.63;;;6.03;;
17997;SDS011;9124;48.144;17.098;2022-07-30T03:19:05;7.20;;;6.70;;
17997;SDS011;9124;48.144;17.098;2022-07-30T03:22:50;5.82;;;5.43;;
17997;SDS011;9124;48.144;17.098;2022-07-30T03:26:27;5.72;;;4.72;;
17997;SDS011;9124;48.144;17.098;2022-07-30T03:30:06;4.50;;;4.20;;
17997;SDS011;9124;48.144;17.098;2022-07-30T03:33:44;4.00;;;3.67;;
17997;SDS011;9124;48.144;17.098;2022-07-30T03:37:23;3.70;;;3.50;;
17997;SDS011;9124;48.144;17.098;2022-07-30T03:41:02;4.40;;;3.78;;
17997;SDS011;9124;48.144;17.098;2022-07-30T03:44:40;4.15;;;3.80;;
17997;SDS011;9124;48.144;17.098;2022-07-30T03:48:21;3.03;;;2.83;;
17997;SDS011;9124;48.144;17.098;2022-07-30T03:52:01;3.65;;;3.45;;
17997;SDS011;9124;48.144;17.098;2022-07-30T03:55:40;3.50;;;3.22;;
17997;SDS011;9124;48.144;17.098;2022-07-30T03:59:44;3.03;;;2.60;;
17997;SDS011;9124;48.144;17.098;2022-07-30T04:03:25;3.88;;;2.95;;
17997;SDS011;9124;48.144;17.098;2022-07-30T04:07:08;2.72;;;2.05;;
17997;SDS011;9124;48.144;17.098;2022-07-30T04:10:45;3.53;;;2.50;;
17997;SDS011;9124;48.144;17.098;2022-07-30T04:14:22;2.80;;;2.60;;
17997;SDS011;9124;48.144;17.098;2022-07-30T04:18:00;2.10;;;1.88;;
17997;SDS011;9124;48.144;17.098;2022-07-30T04:21:40;1.85;;;1.75;;
17997;SDS011;9124;48.144;17.098;2022-07-30T04:25:20;2.33;;;2.00;;
17997;SDS011;9124;48.144;17.098;2022-07-30T04:28:59;2.40;;;2.30;;
17997;SDS011;9124;48.144;17.098;2022-07-30T04:32:38;2.75;;;2.13;;
17997;SDS011;9124;48.144;17.098;2022-07-30T04:36:18;4.53;;;2.38;;
17997;SDS011;9124;48.144;17.098;2022-07-30T04:39:56;3.72;;;2.83;;
17997;SDS011;9124;48.144;17.098;2022-07-30T04:43:33;3.53;;;2.83;;
17997;SDS011;9124;48.144;17.098;2022-07-30T04:47:09;3.03;;;2.83;;
17997;SDS011;9124;48.144;17.098;2022-07-30T04:50:58;2.80;;;2.60;;
17997;SDS011;9124;48.144;17.098;2022-07-30T04:54:41;2.58;;;2.20;;
17997;SDS011;9124;48.144;17.098;2022-07-30T04:58:21;3.03;;;2.83;;
17997;SDS011;9124;48.144;17.098;2022-07-30T05:01:59;2.95;;;2.50;;
17997;SDS011;9124;48.144;17.098;2022-07-30T05:05:38;3.75;;;2.83;;
17997;SDS011;9124;48.144;17.098;2022-07-30T05:09:16;2.92;;;2.72;;
17997;SDS011;9124;48.144;17.098;2022-07-30T05:12:54;2.58;;;2.45;;
17997;SDS011;9124;48.144;17.098;2022-07-30T05:16:32;3.03;;;2.85;;
17997;SDS011;9124;48.144;17.098;2022-07-30T05:20:11;3.13;;;2.92;;
17997;SDS011;9124;48.144;17.098;2022-07-30T05:24:09;3.53;;;2.95;;
17997;SDS011;9124;48.144;17.098;2022-07-30T05:27:49;4.68;;;3.00;;
17997;SDS011;9124;48.144;17.098;2022-07-30T05:31:27;3.90;;;2.53;;
17997;SDS011;9124;48.144;17.098;2022-07-30T05:35:08;3.33;;;3.03;;
17997;SDS011;9124;48.144;17.098;2022-07-30T05:38:46;3.33;;;3.13;;
17997;SDS011;9124;48.144;17.098;2022-07-30T05:42:42;3.05;;;2.85;;
17997;SDS011;9124;48.144;17.098;2022-07-30T05:46:19;3.60;;;3.40;;
17997;SDS011;9124;48.144;17.098;2022-07-30T05:49:56;3.85;;;3.10;;
17997;SDS011;9124;48.144;17.098;2022-07-30T05:53:33;3.45;;;3.15;;
17997;SDS011;9124;48.144;17.098;2022-07-30T05:57:34;4.28;;;3.97;;
17997;SDS011;9124;48.144;17.098;2022-07-30T06:01:13;4.15;;;3.63;;
17997;SDS011;9124;48.144;17.098;2022-07-30T06:04:51;4.47;;;4.13;;
17997;SDS011;9124;48.144;17.098;2022-07-30T06:08:29;3.83;;;3.63;;
17997;SDS011;9124;48.144;17.098;2022-07-30T06:12:06;3.42;;;3.00;;
17997;SDS011;9124;48.144;17.098;2022-07-30T06:15:43;4.20;;;3.78;;
17997;SDS011;9124;48.144;17.098;2022-07-30T06:19:20;4.43;;;4.13;;
17997;SDS011;9124;48.144;17.098;2022-07-30T06:22:58;3.92;;;3.33;;
17997;SDS011;9124;48.144;17.098;2022-07-30T06:26:45;4.55;;;4.25;;
17997;SDS011;9124;48.144;17.098;2022-07-30T06:30:23;3.47;;;2.88;;
17997;SDS011;9124;48.144;17.098;2022-07-30T06:34:00;5.03;;;4.63;;
17997;SDS011;9124;48.144;17.098;2022-07-30T06:37:43;4.80;;;4.00;;
17997;SDS011;9124;48.144;17.098;2022-07-30T06:41:21;4.70;;;4.40;;
17997;SDS011;9124;48.144;17.098;2022-07-30T06:45:01;7.47;;;4.15;;
17997;SDS011;9124;48.144;17.098;2022-07-30T06:48:58;5.47;;;5.13;;
17997;SDS011;9124;48.144;17.098;2022-07-30T06:52:35;5.45;;;5.00;;
17997;SDS011;9124;48.144;17.098;2022-07-30T06:56:12;5.18;;;4.88;;
17997;SDS011;9124;48.144;17.098;2022-07-30T06:59:57;4.95;;;4.60;;
17997;SDS011;9124;48.144;17.098;2022-07-30T07:03:39;4.43;;;4.22;;
17997;SDS011;9124;48.144;17.098;2022-07-30T07:07:15;5.20;;;4.70;;
17997;SDS011;9124;48.144;17.098;2022-07-30T07:10:53;5.18;;;4.57;;
17997;SDS011;9124;48.144;17.098;2022-07-30T07:14:39;5.53;;;4.75;;
17997;SDS011;9124;48.144;17.098;2022-07-30T07:18:17;3.92;;;3.63;;
17997;SDS011;9124;48.144;17.098;2022-07-30T07:22:00;4.50;;;4.18;;
17997;SDS011;9124;48.144;17.098;2022-07-30T07:25:38;3.97;;;3.67;;
17997;SDS011;9124;48.144;17.098;2022-07-30T07:29:15;5.30;;;4.05;;
17997;SDS011;9124;48.144;17.098;2022-07-30T07:32:53;3.55;;;3.30;;
17997;SDS011;9124;48.144;17.098;2022-07-30T07:36:29;3.80;;;3.17;;
17997;SDS011;9124;48.144;17.098;2022-07-30T07:40:07;2.88;;;2.75;;
17997;SDS011;9124;48.144;17.098;2022-07-30T07:43:48;5.72;;;3.13;;
17997;SDS011;9124;48.144;17.098;2022-07-30T07:47:47;2.92;;;2.72;;
17997;SDS011;9124;48.144;17.098;2022-07-30T07:51:50;3.72;;;3.03;;
17997;SDS011;9124;48.144;17.098;2022-07-30T07:55:29;3.85;;;2.80;;
17997;SDS011;9124;48.144;17.098;2022-07-30T07:59:07;3.22;;;3.03;;
17997;SDS011;9124;48.144;17.098;2022-07-30T08:02:44;3.25;;;2.95;;
17997;SDS011;9124;48.144;17.098;2022-07-30T08:06:22;3.72;;;3.47;;
17997;SDS011;9124;48.144;17.098;2022-07-30T08:10:18;3.05;;;2.85;;
17997;SDS011;9124;48.144;17.098;2022-07-30T08:14:15;3.38;;;3.17;;
17997;SDS011;9124;48.144;17.098;2022-07-30T08:18:18;4.05;;;3.50;;
17997;SDS011;9124;48.144;17.098;2022-07-30T08:22:09;3.90;;;3.60;;
17997;SDS011;9124;48.144;17.098;2022-07-30T08:25:47;3.40;;;3.20;;
17997;SDS011;9124;48.144;17.098;2022-07-30T08:29:23;3.40;;;3.10;;
17997;SDS011;9124;48.144;17.098;2022-07-30T08:33:01;3.30;;;3.03;;
17997;SDS011;9124;48.144;17.098;2022-07-30T08:36:39;2.92;;;2.72;;
17997;SDS011;9124;48.144;17.098;2022-07-30T08:40:18;3.20;;;3.00;;
17997;SDS011;9124;48.144;17.098;2022-07-30T08:44:10;5.70;;;5.20;;
17997;SDS011;9124;48.144;17.098;2022-07-30T08:47:48;8.02;;;7.45;;
17997;SDS011;9124;48.144;17.098;2022-07-30T08:51:31;6.20;;;5.55;;
17997;SDS011;9124;48.144;17.098;2022-07-30T08:55:18;3.38;;;3.03;;
17997;SDS011;9124;48.144;17.098;2022-07-30T08:58:56;15.88;;;12.45;;
17997;SDS011;9124;48.144;17.098;2022-07-30T09:02:35;2.60;;;2.50;;
17997;SDS011;9124;48.144;17.098;2022-07-30T09:06:13;10.05;;;8.85;;
17997;SDS011;9124;48.144;17.098;2022-07-30T09:09:51;4.95;;;3.70;;
17997;SDS011;9124;48.144;17.098;2022-07-30T09:13:29;3.10;;;2.97;;
17997;SDS011;9124;48.144;17.098;2022-07-30T09:17:15;2.40;;;2.30;;
17997;SDS011;9124;48.144;17.098;2022-07-30T09:20:52;2.58;;;2.40;;
17997;SDS011;9124;48.144;17.098;2022-07-30T09:24:29;2.78;;;2.13;;
17997;SDS011;9124;48.144;17.098;2022-07-30T09:28:48;3.10;;;2.80;;
17997;SDS011;9124;48.144;17.098;2022-07-30T09:32:57;7.40;;;2.55;;
17997;SDS011;9124;48.144;17.098;2022-07-30T09:36:53;2.20;;;2.10;;
17997;SDS011;9124;48.144;17.098;2022-07-30T09:40:57;2.05;;;1.90;;
17997;SDS011;9124;48.144;17.098;2022-07-30T09:44:45;2.03;;;1.92;;
17997;SDS011;9124;48.144;17.098;2022-07-30T09:48:25;2.00;;;1.90;;
17997;SDS011;9124;48.144;17.098;2022-07-30T09:52:03;2.10;;;2.00;;
17997;SDS011;9124;48.144;17.098;2022-07-30T09:55:44;2.05;;;1.95;;
17997;SDS011;9124;48.144;17.098;2022-07-30T09:59:25;2.35;;;2.15;;
17997;SDS011;9124;48.144;17.098;2022-07-30T10:03:18;2.40;;;1.85;;
17997;SDS011;9124;48.144;17.098;2022-07-30T10:07:17;3.50;;;1.90;;
17997;SDS011;9124;48.144;17.098;2022-07-30T10:10:55;1.92;;;1.83;;
17997;SDS011;9124;48.144;17.098;2022-07-30T10:14:34;2.10;;;2.00;;
17997;SDS011;9124;48.144;17.098;2022-07-30T10:18:14;2.05;;;1.95;;
17997;SDS011;9124;48.144;17.098;2022-07-30T10:22:03;1.63;;;1.52;;
17997;SDS011;9124;48.144;17.098;2022-07-30T10:26:00;2.53;;;2.33;;
17997;SDS011;9124;48.144;17.098;2022-07-30T10:29:57;2.25;;;2.05;;
17997;SDS011;9124;48.144;17.098;2022-07-30T10:33:36;2.33;;;2.22;;
17997;SDS011;9124;48.144;17.098;2022-07-30T10:37:13;2.38;;;2.28;;
17997;SDS011;9124;48.144;17.098;2022-07-30T10:40:57;2.15;;;2.05;;
17997;SDS011;9124;48.144;17.098;2022-07-30T10:48:38;2.90;;;2.70;;
17997;SDS011;9124;48.144;17.098;2022-07-30T10:52:15;2.20;;;2.08;;
17997;SDS011;9124;48.144;17.098;2022-07-30T10:56:30;2.50;;;2.40;;
17997;SDS011;9124;48.144;17.098;2022-07-30T11:00:07;2.70;;;2.50;;
17997;SDS011;9124;48.144;17.098;2022-07-30T11:04:08;2.70;;;2.50;;
17997;SDS011;9124;48.144;17.098;2022-07-30T11:07:52;3.13;;;2.90;;
17997;SDS011;9124;48.144;17.098;2022-07-30T11:15:13;3.75;;;2.83;;
17997;SDS011;9124;48.144;17.098;2022-07-30T11:19:08;2.70;;;2.50;;
17997;SDS011;9124;48.144;17.098;2022-07-30T11:22:48;2.55;;;2.45;;
17997;SDS011;9124;48.144;17.098;2022-07-30T11:38:02;4.13;;;2.42;;
17997;SDS011;9124;48.144;17.098;2022-07-30T11:46:06;3.55;;;2.33;;
17997;SDS011;9124;48.144;17.098;2022-07-30T11:49:45;2.30;;;2.20;;
17997;SDS011;9124;48.144;17.098;2022-07-30T11:53:22;3.05;;;2.85;;
17997;SDS011;9124;48.144;17.098;2022-07-30T11:56:59;2.80;;;2.63;;
17997;SDS011;9124;48.144;17.098;2022-07-30T12:00:40;4.55;;;3.05;;
17997;SDS011;9124;48.144;17.098;2022-07-30T12:04:23;4.32;;;3.15;;
17997;SDS011;9124;48.144;17.098;2022-07-30T12:07:59;3.00;;;2.90;;
17997;SDS011;9124;48.144;17.098;2022-07-30T12:11:36;3.10;;;2.90;;
17997;SDS011;9124;48.144;17.098;2022-07-30T12:15:29;3.58;;;3.38;;
17997;SDS011;9124;48.144;17.098;2022-07-30T12:19:08;3.60;;;3.00;;
17997;SDS011;9124;48.144;17.098;2022-07-30T12:22:45;5.30;;;2.85;;
17997;SDS011;9124;48.144;17.098;2022-07-30T12:26:24;3.13;;;2.92;;
17997;SDS011;9124;48.144;17.098;2022-07-30T12:30:04;3.40;;;3.20;;
17997;SDS011;9124;48.144;17.098;2022-07-30T12:33:44;3.40;;;3.20;;
17997;SDS011;9124;48.144;17.098;2022-07-30T12:37:20;3.00;;;2.80;;
17997;SDS011;9124;48.144;17.098;2022-07-30T12:41:04;2.63;;;2.53;;
17997;SDS011;9124;48.144;17.098;2022-07-30T12:44:41;2.63;;;2.53;;
17997;SDS011;9124;48.144;17.098;2022-07-30T12:48:21;3.75;;;2.50;;
17997;SDS011;9124;48.144;17.098;2022-07-30T12:51:58;3.17;;;2.88;;
17997;SDS011;9124;48.144;17.098;2022-07-30T12:55:35;2.63;;;2.40;;
17997;SDS011;9124;48.144;17.098;2022-07-30T12:59:21;3.40;;;2.80;;
17997;SDS011;9124;48.144;17.098;2022-07-30T13:02:59;3.50;;;3.30;;
17997;SDS011;9124;48.144;17.098;2022-07-30T13:06:35;4.15;;;3.10;;
17997;SDS011;9124;48.144;17.098;2022-07-30T13:10:13;3.53;;;3.33;;
17997;SDS011;9124;48.144;17.098;2022-07-30T13:13:53;2.88;;;2.67;;
17997;SDS011;9124;48.144;17.098;2022-07-30T13:17:30;2.80;;;2.70;;
17997;SDS011;9124;48.144;17.098;2022-07-30T13:21:07;3.13;;;3.03;;
17997;SDS011;9124;48.144;17.098;2022-07-30T13:24:45;3.75;;;2.67;;
17997;SDS011;9124;48.144;17.098;2022-07-30T13:28:21;3.53;;;3.15;;
17997;SDS011;9124;48.144;17.098;2022-07-30T13:31:59;3.40;;;3.10;;
17997;SDS011;9124;48.144;17.098;2022-07-30T13:35:35;3.33;;;3.13;;
17997;SDS011;9124;48.144;17.098;2022-07-30T13:39:12;3.20;;;3.00;;
17997;SDS011;9124;48.144;17.098;2022-07-30T13:42:49;4.03;;;3.72;;
17997;SDS011;9124;48.144;17.098;2022-07-30T13:46:26;3.47;;;3.25;;
17997;SDS011;9124;48.144;17.098;2022-07-30T13:50:03;3.78;;;3.58;;
17997;SDS011;9124;48.144;17.098;2022-07-30T13:53:40;3.67;;;3.47;;
17997;SDS011;9124;48.144;17.098;2022-07-30T13:57:17;3.67;;;3.47;;
17997;SDS011;9124;48.144;17.098;2022-07-30T14:00:54;9.68;;;3.60;;
17997;SDS011;9124;48.144;17.098;2022-07-30T14:04:31;4.65;;;3.72;;
17997;SDS011;9124;48.144;17.098;2022-07-30T14:08:08;4.85;;;3.78;;
17997;SDS011;9124;48.144;17.098;2022-07-30T14:11:46;4.55;;;4.30;;
17997;SDS011;9124;48.144;17.098;2022-07-30T14:15:24;4.10;;;3.90;;
17997;SDS011;9124;48.144;17.098;2022-07-30T14:19:01;6.20;;;4.82;;
17997;SDS011;9124;48.144;17.098;2022-07-30T14:22:39;4.63;;;4.43;;
17997;SDS011;9124;48.144;17.098;2022-07-30T14:26:16;5.20;;;4.80;;
17997;SDS011;9124;48.144;17.098;2022-07-30T14:29:53;4.72;;;4.43;;
17997;SDS011;9124;48.144;17.098;2022-07-30T14:33:30;4.95;;;4.55;;
17997;SDS011;9124;48.144;17.098;2022-07-30T14:37:06;4.68;;;4.38;;
17997;SDS011;9124;48.144;17.098;2022-07-30T14:40:43;4.72;;;4.43;;
17997;SDS011;9124;48.144;17.098;2022-07-30T14:44:21;5.50;;;5.20;;
17997;SDS011;9124;48.144;17.098;2022-07-30T14:47:59;5.13;;;4.72;;
17997;SDS011;9124;48.144;17.098;2022-07-30T14:51:35;4.72;;;4.43;;
17997;SDS011;9124;48.144;17.098;2022-07-30T14:55:12;4.60;;;4.22;;
17997;SDS011;9124;48.144;17.098;2022-07-30T14:58:49;4.63;;;4.43;;
17997;SDS011;9124;48.144;17.098;2022-07-30T15:02:27;4.85;;;4.47;;
17997;SDS011;9124;48.144;17.098;2022-07-30T15:06:04;4.63;;;4.30;;
17997;SDS011;9124;48.144;17.098;2022-07-30T15:09:44;4.88;;;4.47;;
17997;SDS011;9124;48.144;17.098;2022-07-30T15:13:21;4.60;;;4.30;;
17997;SDS011;9124;48.144;17.098;2022-07-30T15:16:58;4.03;;;3.83;;
17997;SDS011;9124;48.144;17.098;2022-07-30T15:20:34;4.07;;;3.88;;
17997;SDS011;9124;48.144;17.098;2022-07-30T15:24:11;4.10;;;3.85;;
17997;SDS011;9124;48.144;17.098;2022-07-30T15:27:48;6.03;;;3.90;;
17997;SDS011;9124;48.144;17.098;2022-07-30T15:31:27;4.40;;;3.47;;
17997;SDS011;9124;48.144;17.098;2022-07-30T15:35:03;3.60;;;3.38;;
17997;SDS011;9124;48.144;17.098;2022-07-30T15:38:41;3.50;;;3.30;;
17997;SDS011;9124;48.144;17.098;2022-07-30T15:42:18;4.70;;;3.40;;
17997;SDS011;9124;48.144;17.098;2022-07-30T15:45:55;4.00;;;3.80;;
17997;SDS011;9124;48.144;17.098;2022-07-30T15:49:32;3.70;;;3.50;;
17997;SDS011;9124;48.144;17.098;2022-07-30T15:53:08;5.32;;;3.03;;
17997;SDS011;9124;48.144;17.098;2022-07-30T15:56:46;5.55;;;3.33;;
17997;SDS011;9124;48.144;17.098;2022-07-30T16:00:24;3.22;;;3.08;;
17997;SDS011;9124;48.144;17.098;2022-07-30T16:04:01;3.00;;;2.90;;
17997;SDS011;9124;48.144;17.098;2022-07-30T16:07:38;3.10;;;2.90;;
17997;SDS011;9124;48.144;17.098;2022-07-30T16:11:15;3.40;;;3.20;;
17997;SDS011;9124;48.144;17.098;2022-07-30T16:14:52;3.75;;;3.45;;
17997;SDS011;9124;48.144;17.098;2022-07-30T16:18:29;3.67;;;3.40;;
17997;SDS011;9124;48.144;17.098;2022-07-30T16:22:06;3.67;;;3.47;;
17997;SDS011;9124;48.144;17.098;2022-07-30T16:25:42;4.50;;;4.13;;
17997;SDS011;9124;48.144;17.098;2022-07-30T16:29:19;4.10;;;3.80;;
17997;SDS011;9124;48.144;17.098;2022-07-30T16:32:56;4.05;;;3.85;;
17997;SDS011;9124;48.144;17.098;2022-07-30T16:36:33;4.55;;;4.15;;
17997;SDS011;9124;48.144;17.098;2022-07-30T16:40:10;4.53;;;4.28;;
17997;SDS011;9124;48.144;17.098;2022-07-30T16:43:47;4.57;;;4.20;;
17997;SDS011;9124;48.144;17.098;2022-07-30T16:47:24;4.80;;;4.43;;
17997;SDS011;9124;48.144;17.098;2022-07-30T16:51:00;5.20;;;4.80;;
17997;SDS011;9124;48.144;17.098;2022-07-30T16:54:38;5.15;;;4.68;;
17997;SDS011;9124;48.144;17.098;2022-07-30T16:58:15;5.00;;;4.70;;
17997;SDS011;9124;48.144;17.098;2022-07-30T17:01:52;4.35;;;4.03;;
17997;SDS011;9124;48.144;17.098;2022-07-30T17:05:29;6.10;;;5.50;;
17997;SDS011;9124;48.144;17.098;2022-07-30T17:09:06;5.78;;;5.10;;
17997;SDS011;9124;48.144;17.098;2022-07-30T17:12:42;4.75;;;4.45;;
17997;SDS011;9124;48.144;17.098;2022-07-30T17:16:20;6.75;;;4.82;;
17997;SDS011;9124;48.144;17.098;2022-07-30T17:19:56;5.82;;;4.82;;
17997;SDS011;9124;48.144;17.098;2022-07-30T17:23:37;4.43;;;4.13;;
17997;SDS011;9124;48.144;17.098;2022-07-30T17:27:13;4.47;;;4.22;;
17997;SDS011;9124;48.144;17.098;2022-07-30T17:30:50;3.90;;;3.70;;
17997;SDS011;9124;48.144;17.098;2022-07-30T17:34:27;4.80;;;4.40;;
17997;SDS011;9124;48.144;17.098;2022-07-30T17:38:04;4.80;;;4.40;;
17997;SDS011;9124;48.144;17.098;2022-07-30T17:41:42;4.22;;;3.92;;
17997;SDS011;9124;48.144;17.098;2022-07-30T17:45:19;7.35;;;3.20;;
17997;SDS011;9124;48.144;17.098;2022-07-30T17:48:55;3.90;;;3.70;;
17997;SDS011;9124;48.144;17.098;2022-07-30T17:52:33;3.78;;;3.50;;
17997;SDS011;9124;48.144;17.098;2022-07-30T17:56:09;3.60;;;2.97;;
17997;SDS011;9124;48.144;17.098;2022-07-30T17:59:48;4.13;;;3.35;;
17997;SDS011;9124;48.144;17.098;2022-07-30T18:03:25;3.83;;;3.20;;
17997;SDS011;9124;48.144;17.098;2022-07-30T18:07:02;3.90;;;3.60;;
17997;SDS011;9124;48.144;17.098;2022-07-30T18:10:39;4.05;;;3.67;;
17997;SDS011;9124;48.144;17.098;2022-07-30T18:14:16;4.38;;;3.97;;
17997;SDS011;9124;48.144;17.098;2022-07-30T18:17:53;5.85;;;5.05;;
17997;SDS011;9124;48.144;17.098;2022-07-30T18:21:30;4.90;;;4.50;;
17997;SDS011;9124;48.144;17.098;2022-07-30T18:25:06;4.45;;;4.15;;
17997;SDS011;9124;48.144;17.098;2022-07-30T18:28:45;5.38;;;4.47;;
17997;SDS011;9124;48.144;17.098;2022-07-30T18:32:24;4.78;;;4.28;;
17997;SDS011;9124;48.144;17.098;2022-07-30T18:36:01;4.50;;;4.20;;
17997;SDS011;9124;48.144;17.098;2022-07-30T18:39:38;3.92;;;3.45;;
17997;SDS011;9124;48.144;17.098;2022-07-30T18:43:15;6.70;;;3.80;;
17997;SDS011;9124;48.144;17.098;2022-07-30T18:46:54;3.30;;;3.00;;
17997;SDS011;9124;48.144;17.098;2022-07-30T18:50:31;5.45;;;3.38;;
17997;SDS011;9124;48.144;17.098;2022-07-30T18:54:08;5.85;;;4.00;;
17997;SDS011;9124;48.144;17.098;2022-07-30T18:57:45;3.90;;;3.70;;
17997;SDS011;9124;48.144;17.098;2022-07-30T19:01:22;4.25;;;3.80;;
17997;SDS011;9124;48.144;17.098;2022-07-30T19:04:59;4.25;;;4.00;;
17997;SDS011;9124;48.144;17.098;2022-07-30T19:08:36;5.05;;;4.80;;
17997;SDS011;9124;48.144;17.098;2022-07-30T19:12:12;5.65;;;4.30;;
17997;SDS011;9124;48.144;17.098;2022-07-30T19:15:49;4.63;;;4.32;;
17997;SDS011;9124;48.144;17.098;2022-07-30T19:19:26;5.03;;;4.63;;
17997;SDS011;9124;48.144;17.098;2022-07-30T19:23:04;4.65;;;4.35;;
17997;SDS011;9124;48.144;17.098;2022-07-30T19:26:42;4.82;;;4.43;;
17997;SDS011;9124;48.144;17.098;2022-07-30T19:30:19;6.97;;;4.70;;
17997;SDS011;9124;48.144;17.098;2022-07-30T19:33:56;7.00;;;4.00;;
17997;SDS011;9124;48.144;17.098;2022-07-30T19:37:33;4.90;;;4.53;;
17997;SDS011;9124;48.144;17.098;2022-07-30T19:41:12;4.53;;;4.22;;
17997;SDS011;9124;48.144;17.098;2022-07-30T19:44:48;6.05;;;4.32;;
17997;SDS011;9124;48.144;17.098;2022-07-30T19:48:26;5.90;;;5.50;;
17997;SDS011;9124;48.144;17.098;2022-07-30T19:52:03;8.63;;;5.75;;
17997;SDS011;9124;48.144;17.098;2022-07-30T19:55:40;6.05;;;5.20;;
17997;SDS011;9124;48.144;17.098;2022-07-30T19:59:17;10.90;;;6.18;;
17997;SDS011;9124;48.144;17.098;2022-07-30T20:02:54;6.13;;;5.72;;
17997;SDS011;9124;48.144;17.098;2022-07-30T20:06:30;6.07;;;5.65;;
17997;SDS011;9124;48.144;17.098;2022-07-30T20:10:08;6.07;;;5.65;;
17997;SDS011;9124;48.144;17.098;2022-07-30T20:13:45;5.93;;;5.40;;
17997;SDS011;9124;48.144;17.098;2022-07-30T20:17:23;5.65;;;5.13;;
17997;SDS011;9124;48.144;17.098;2022-07-30T20:21:00;5.65;;;4.70;;
17997;SDS011;9124;48.144;17.098;2022-07-30T20:24:37;4.22;;;4.03;;
17997;SDS011;9124;48.144;17.098;2022-07-30T20:28:13;4.05;;;3.67;;
17997;SDS011;9124;48.144;17.098;2022-07-30T20:31:51;5.07;;;3.58;;
17997;SDS011;9124;48.144;17.098;2022-07-30T20:35:28;4.80;;;4.40;;
17997;SDS011;9124;48.144;17.098;2022-07-30T20:39:05;4.88;;;4.55;;
17997;SDS011;9124;48.144;17.098;2022-07-30T20:42:44;4.30;;;4.00;;
17997;SDS011;9124;48.144;17.098;2022-07-30T20:46:22;3.58;;;3.38;;
17997;SDS011;9124;48.144;17.098;2022-07-30T20:49:59;4.57;;;4.18;;
17997;SDS011;9124;48.144;17.098;2022-07-30T20:53:36;4.35;;;3.92;;
17997;SDS011;9124;48.144;17.098;2022-07-30T20:57:12;4.60;;;4.35;;
17997;SDS011;9124;48.144;17.098;2022-07-30T21:00:49;4.35;;;3.72;;
17997;SDS011;9124;48.144;17.098;2022-07-30T21:04:26;4.50;;;4.20;;
17997;SDS011;9124;48.144;17.098;2022-07-30T21:08:03;4.18;;;3.92;;
17997;SDS011;9124;48.144;17.098;2022-07-30T21:11:40;4.57;;;4.38;;
17997;SDS011;9124;48.144;17.098;2022-07-30T21:15:17;4.03;;;3.72;;
17997;SDS011;9124;48.144;17.098;2022-07-30T21:18:54;4.32;;;3.90;;
17997;SDS011;9124;48.144;17.098;2022-07-30T21:22:31;4.03;;;3.67;;
17997;SDS011;9124;48.144;17.098;2022-07-30T21:26:07;4.22;;;4.03;;
17997;SDS011;9124;48.144;17.098;2022-07-30T21:29:44;5.63;;;4.90;;
17997;SDS011;9124;48.144;17.098;2022-07-30T21:33:21;4.85;;;4.53;;
17997;SDS011;9124;48.144;17.098;2022-07-30T21:36:58;5.38;;;4.85;;
17997;SDS011;9124;48.144;17.098;2022-07-30T21:40:35;5.30;;;4.80;;
17997;SDS011;9124;48.144;17.098;2022-07-30T21:44:11;5.35;;;5.05;;
17997;SDS011;9124;48.144;17.098;2022-07-30T21:47:48;5.47;;;5.07;;
17997;SDS011;9124;48.144;17.098;2022-07-30T21:51:26;6.03;;;5.50;;
17997;SDS011;9124;48.144;17.098;2022-07-30T21:55:03;5.32;;;5.03;;
17997;SDS011;9124;48.144;17.098;2022-07-30T21:58:39;6.00;;;5.70;;
17997;SDS011;9124;48.144;17.098;2022-07-30T22:02:16;6.45;;;6.05;;
17997;SDS011;9124;48.144;17.098;2022-07-30T22:05:53;6.50;;;6.10;;
17997;SDS011;9124;48.144;17.098;2022-07-30T22:09:30;6.10;;;5.80;;
17997;SDS011;9124;48.144;17.098;2022-07-30T22:13:07;6.20;;;5.65;;
17997;SDS011;9124;48.144;17.098;2022-07-30T22:16:46;6.50;;;6.20;;
17997;SDS011;9124;48.144;17.098;2022-07-30T22:20:23;6.70;;;6.40;;
17997;SDS011;9124;48.144;17.098;2022-07-30T22:24:01;6.57;;;6.22;;